Home   Weather   Finland   Tampere   Past weeks
Flag for Finland

Past Weather in Tampere, Finland — Yesterday and Last 2 Weeks

Currently: 46 °F. Low clouds. (Weather station: Tampere / Pirkkala, Finland). See more current weather

Past Weather in Tampere — Graph

°F

Tampere Temperature Yesterday

Maximum temperature yesterday: 50 °F (at 2:50 pm)
Minimum temperature yesterday: 34 °F (at 5:20 am)
Average temperature yesterday: 44 °F

High & Low Weather Summary for the Past Weeks

 TemperatureHumidityPressure
High57 °F (Sep 23, 2:20 pm)100% (Sep 18, 10:20 pm)30.24 "Hg (Sep 18, 10:20 pm)
Low28 °F (Sep 22, 4:20 am)51% (Sep 22, 4:50 pm)29.47 "Hg (Sep 18, 5:20 pm)
Average45 °F88%29.86 "Hg
* Reported Sep 18 5:20 pm — Oct 3 5:20 pm, Tampere. Weather by CustomWeather, © 2022

Note: Actual official high and low records may vary slightly from our data, if they occured in-between our weather recording intervals... More about our weather records

Tampere Weather History for the Previous 24 Hours

Scroll right to see more
 ConditionsComfort  
Time TempWeatherWind HumidityBarometerVisibility
5:20 pm
Mon, Oct 3
46 °FScattered clouds.6 mph82%29.89 "HgN/A
4:20 pm46 °FPassing clouds.6 mph82%29.89 "HgN/A
3:50 pm46 °FPassing clouds.6 mph87%29.89 "HgN/A
3:20 pm46 °FPassing clouds.7 mph87%29.89 "HgN/A
2:50 pm48 °FPassing clouds.6 mph82%29.89 "HgN/A
2:20 pm48 °FPassing clouds.6 mph82%29.92 "HgN/A
1:50 pm48 °FPassing clouds.6 mph82%29.92 "HgN/A
1:20 pm50 °FPassing clouds.6 mph76%29.89 "HgN/A
12:50 pm48 °FPassing clouds.5 mph76%29.92 "HgN/A
11:50 am48 °FPassing clouds.5 mph76%29.92 "HgN/A
11:20 am46 °FPassing clouds.2 mph87%29.92 "HgN/A
10:20 am43 °FPassing clouds.2 mph93%29.92 "HgN/A
9:20 am39 °FScattered clouds.1 mph100%29.89 "HgN/A
8:50 am36 °FScattered clouds.1 mph100%29.89 "Hg1 mi
8:20 am34 °FScattered clouds.1 mph100%29.89 "Hg1 mi
7:50 am34 °FDense fog.1 mph100%29.89 "Hg1 mi
7:20 am34 °FDense fog.2 mph100%29.89 "Hg1 mi
6:20 am34 °FFog.1 mph100%29.89 "Hg1 mi
5:50 am36 °FPassing clouds.1 mph93%29.89 "HgN/A
5:20 am34 °FLight fog.1 mph100%29.89 "HgN/A
3:50 am36 °FFog.1 mph100%29.89 "Hg2 mi
2:20 am37 °FLight fog.1 mph100%29.86 "Hg1 mi
1:50 am37 °FFog.1 mph100%29.86 "Hg1 mi
1:20 am39 °FFog.No wind100%29.86 "Hg1 mi
12:50 am41 °FClear.1 mph100%29.86 "Hg10 mi
12:20 am41 °FClear.2 mph100%29.86 "Hg10 mi
11:50 pm
Sun, Oct 2
41 °FClear.2 mph100%29.86 "Hg10 mi
11:20 pm43 °FClear.2 mph100%29.83 "Hg10 mi
10:50 pm43 °FClear.2 mph100%29.83 "Hg10 mi
10:20 pm43 °FClear.2 mph100%29.83 "Hg10 mi
9:50 pm43 °FClear.1 mph100%29.83 "HgN/A
9:20 pm45 °FLight fog.1 mph100%29.83 "HgN/A
8:50 pm45 °FFog.2 mph100%29.83 "Hg1 mi
8:20 pm45 °FClear.2 mph100%29.80 "HgN/A
7:50 pm46 °FClear.1 mph100%29.80 "Hg6 mi
7:20 pm46 °FClear.3 mph100%29.80 "Hg10 mi
Weather by CustomWeather, © 2022

See weather overview